Time;durP1;ratioP1;P1;durP2;ratioP2;P2;SDS_P1;SDS_P2;PMS_P1;PMS_P2;Temp;Humidity;BMP_temperature;BMP_pressure;BME280_temperature;BME280_humidity;BME280_pressure;Samples;Min_cycle;Max_cycle;Signal;HPM_P1;HPM_P2
2021/01/25 00:00:24;;;;;;;12.43;8.30;;;;;;;1.48;80.33;98034.91;1742642;82;25274;-65
2021/01/25 00:02:55;;;;;;;9.93;6.60;;;;;;;1.46;80.62;98031.59;1718664;82;25699;-66
2021/01/25 00:05:21;;;;;;;12.77;9.10;;;;;;;1.48;80.91;98032.31;1759873;81;25724;-65
2021/01/25 00:07:48;;;;;;;13.30;9.33;;;;;;;1.46;80.97;98032.41;1727375;83;25231;-65
2021/01/25 00:10:15;;;;;;;15.80;11.50;;;;;;;1.45;81.29;98043.69;1717014;82;25629;-65
2021/01/25 00:12:41;;;;;;;15.90;10.23;;;;;;;1.47;81.39;98045.74;1727347;83;25229;-65
2021/01/25 00:15:11;;;;;;;14.37;9.50;;;;;;;1.47;81.56;98046.19;1747812;81;25162;-65
2021/01/25 00:17:38;;;;;;;12.37;8.37;;;;;;;1.51;81.65;98048.11;1765832;81;25661;-65
2021/01/25 00:20:06;;;;;;;8.40;6.80;;;;;;;1.48;81.99;98041.38;1725141;83;25803;-66
2021/01/25 00:22:33;;;;;;;12.27;8.60;;;;;;;1.47;82.12;98044.45;1757028;81;25163;-65
2021/01/25 00:25:00;;;;;;;11.27;7.60;;;;;;;1.48;82.05;98048.67;1727294;83;25376;-65
2021/01/25 00:27:27;;;;;;;10.27;6.77;;;;;;;1.46;81.89;98050.55;1742499;82;25223;-65
2021/01/25 00:29:53;;;;;;;10.20;7.30;;;;;;;1.45;82.38;98047.58;1727202;82;25640;-64
2021/01/25 00:32:20;;;;;;;9.63;7.00;;;;;;;1.45;82.12;98042.40;1760011;81;25618;-64
2021/01/25 00:34:47;;;;;;;7.00;5.57;;;;;;;1.43;82.51;98040.86;1727451;82;25211;-64
2021/01/25 00:37:14;;;;;;;9.40;6.73;;;;;;;1.44;82.76;98035.58;1733077;81;25325;-64
2021/01/25 00:39:40;;;;;;;8.97;6.53;;;;;;;1.41;82.87;98044.84;1698388;83;25222;-64
2021/01/25 00:42:08;;;;;;;8.63;6.67;;;;;;;1.42;83.52;98050.84;1742379;82;25131;-64
2021/01/25 00:44:34;;;;;;;10.43;6.30;;;;;;;1.38;83.24;98057.17;1727405;83;25326;-65
2021/01/25 00:47:01;;;;;;;7.60;6.33;;;;;;;1.39;83.42;98056.22;1751589;81;25293;-64
2021/01/25 00:49:28;;;;;;;10.10;6.63;;;;;;;1.44;83.63;98054.16;1727362;83;25728;-64
2021/01/25 00:51:55;;;;;;;9.13;6.50;;;;;;;1.35;83.54;98060.77;1773108;81;25283;-64
2021/01/25 00:54:23;;;;;;;8.10;6.60;;;;;;;1.35;83.65;98062.06;1727353;83;25438;-64
2021/01/25 00:56:51;;;;;;;9.50;7.30;;;;;;;1.42;84.00;98065.09;1748106;81;25784;-65
2021/01/25 00:59:18;;;;;;;10.13;6.70;;;;;;;1.41;84.16;98073.34;1740025;81;25237;-64
2021/01/25 01:01:45;;;;;;;7.53;6.53;;;;;;;1.32;84.12;98067.44;1758932;81;25760;-64
2021/01/25 01:04:11;;;;;;;8.50;7.17;;;;;;;1.38;84.51;98067.05;1699935;83;25115;-64
2021/01/25 01:06:40;;;;;;;11.20;7.50;;;;;;;1.37;84.64;98067.15;1742514;81;25615;-65
2021/01/25 01:09:07;;;;;;;10.53;7.60;;;;;;;1.32;84.72;98070.03;1711539;81;25271;-65
2021/01/25 01:11:34;;;;;;;11.43;8.17;;;;;;;1.29;84.69;98068.93;1755250;81;25357;-65
2021/01/25 01:14:01;;;;;;;10.90;8.40;;;;;;;1.25;84.80;98064.89;1755270;81;25158;-65
2021/01/25 01:16:27;;;;;;;12.37;9.17;;;;;;;1.26;84.93;98070.45;1755207;81;25080;-65
2021/01/25 01:18:54;;;;;;;11.80;8.37;;;;;;;1.26;85.17;98072.56;1759598;80;25734;-66
2021/01/25 01:21:21;;;;;;;11.37;9.00;;;;;;;1.28;85.35;98080.23;1786322;80;25332;-65
2021/01/25 01:23:48;;;;;;;14.47;9.47;;;;;;;1.25;85.54;98074.78;1786398;80;25159;-65
2021/01/25 01:26:15;;;;;;;12.43;9.50;;;;;;;1.26;85.71;98071.75;1763384;80;25119;-65
2021/01/25 01:28:41;;;;;;;11.07;8.50;;;;;;;1.22;85.90;98070.27;1786389;80;25363;-65
2021/01/25 01:31:08;;;;;;;11.53;9.10;;;;;;;1.25;85.99;98076.55;1786380;80;25348;-65
2021/01/25 01:33:35;;;;;;;12.00;8.93;;;;;;;1.18;85.97;98070.92;1781057;80;25738;-66
2021/01/25 01:36:03;;;;;;;11.23;8.03;;;;;;;1.17;86.13;98063.25;1782484;80;25190;-65
2021/01/25 01:38:30;;;;;;;11.90;8.90;;;;;;;1.13;86.09;98072.16;1782544;80;25139;-65
2021/01/25 01:41:00;;;;;;;10.13;8.20;;;;;;;1.10;86.30;98066.23;1768959;80;25248;-65
2021/01/25 01:43:27;;;;;;;9.80;7.70;;;;;;;1.03;86.37;98071.91;1755165;81;25223;-65
2021/01/25 01:45:54;;;;;;;10.57;8.40;;;;;;;1.05;86.71;98071.34;1755545;80;25265;-66
2021/01/25 01:48:21;;;;;;;11.20;8.80;;;;;;;1.00;86.54;98083.28;1768226;80;25198;-65
2021/01/25 01:50:48;;;;;;;11.80;8.63;;;;;;;1.02;86.78;98082.74;1778916;80;25123;-65
2021/01/25 01:53:15;;;;;;;11.17;8.97;;;;;;;1.11;87.18;98078.73;1769277;80;25162;-65
2021/01/25 01:55:42;;;;;;;11.27;8.60;;;;;;;1.09;87.25;98089.19;1724126;81;25142;-65
2021/01/25 01:58:10;;;;;;;10.80;9.00;;;;;;;1.01;87.54;98090.13;1755375;81;25066;-65
2021/01/25 02:00:36;;;;;;;11.50;8.97;;;;;;;1.09;87.64;98096.13;1768549;80;25166;-64
2021/01/25 02:03:05;;;;;;;12.93;9.63;;;;;;;1.08;87.70;98095.28;1760633;80;25298;-65
2021/01/25 02:05:32;;;;;;;12.73;9.63;;;;;;;1.03;87.75;98092.16;1755382;81;25091;-64
2021/01/25 02:07:59;;;;;;;11.77;9.67;;;;;;;1.02;87.87;98095.69;1761114;81;25481;-65
2021/01/25 02:10:27;;;;;;;10.33;9.07;;;;;;;1.09;87.99;98091.77;1761025;81;25486;-65
2021/01/25 02:12:58;;;;;;;12.50;10.10;;;;;;;1.06;87.99;98097.14;1761086;81;25676;-65
2021/01/25 02:15:27;;;;;;;12.13;9.60;;;;;;;1.10;88.16;98093.89;1776582;79;25131;-64
2021/01/25 02:17:53;;;;;;;11.53;9.10;;;;;;;1.03;88.00;98091.33;1761074;81;25328;-64
2021/01/25 02:20:41;;;;;;;12.37;9.33;;;;;;;1.05;88.18;98094.64;1761046;81;25513;-65
2021/01/25 02:23:43;;;;;;;11.33;9.67;;;;;;;1.10;88.27;98088.71;1849932;75;26634;-65
2021/01/25 02:26:41;;;;;;;14.47;9.27;;;;;;;1.11;88.30;98091.20;1783688;79;25739;-64
2021/01/25 02:29:17;;;;;;;10.30;8.37;;;;;;;1.16;88.24;98090.92;1818541;78;26859;-64
2021/01/25 02:31:44;;;;;;;10.83;9.10;;;;;;;1.11;88.62;98102.86;1789610;80;25261;-64
2021/01/25 02:34:11;;;;;;;10.43;9.00;;;;;;;1.12;88.51;98111.45;1788254;79;25371;-64
2021/01/25 02:36:37;;;;;;;11.17;9.10;;;;;;;1.13;88.48;98103.23;1772186;80;25296;-65
2021/01/25 02:39:09;;;;;;;9.40;7.80;;;;;;;1.15;88.53;98107.84;1727818;82;25215;-65
2021/01/25 02:41:36;;;;;;;9.13;8.23;;;;;;;1.24;88.68;98108.10;1757674;81;25215;-64
2021/01/25 02:44:03;;;;;;;9.50;7.13;;;;;;;1.28;88.61;98113.91;1781905;79;25281;-64
2021/01/25 02:46:30;;;;;;;9.60;7.70;;;;;;;1.24;88.38;98119.75;1747305;81;25149;-65
2021/01/25 02:48:56;;;;;;;9.17;7.53;;;;;;;1.17;88.45;98122.34;1761232;81;25666;-64
2021/01/25 02:51:23;;;;;;;9.27;7.37;;;;;;;1.20;88.38;98124.75;1752360;81;25279;-64
2021/01/25 02:53:50;;;;;;;9.03;7.20;;;;;;;1.20;88.34;98124.75;1752441;81;25224;-66
2021/01/25 02:56:17;;;;;;;9.90;7.80;;;;;;;1.17;88.49;98131.41;1751914;81;25246;-65
2021/01/25 02:58:45;;;;;;;11.07;8.10;;;;;;;1.20;88.51;98135.11;1714508;82;25783;-65
2021/01/25 03:01:12;;;;;;;10.73;7.57;;;;;;;1.12;88.40;98136.05;1731063;82;25183;-65
2021/01/25 03:03:39;;;;;;;10.10;7.87;;;;;;;1.19;88.56;98145.12;1762615;80;25289;-66
2021/01/25 03:06:07;;;;;;;10.07;7.90;;;;;;;1.18;88.58;98143.91;1783600;80;25138;-63
2021/01/25 03:08:35;;;;;;;8.50;7.27;;;;;;;1.15;88.51;98146.69;1789328;79;25190;-65
2021/01/25 03:11:03;;;;;;;8.40;6.50;;;;;;;1.08;88.56;98150.95;1748624;80;25147;-64
2021/01/25 03:13:30;;;;;;;8.07;6.50;;;;;;;1.06;88.47;98142.45;1708454;81;25175;-64
2021/01/25 03:15:57;;;;;;;6.80;6.10;;;;;;;1.01;88.56;98150.16;1751158;80;25091;-63
2021/01/25 03:18:25;;;;;;;6.83;5.63;;;;;;;1.00;88.41;98155.77;1710034;84;25222;-64
2021/01/25 03:20:54;;;;;;;7.70;5.40;;;;;;;1.02;88.14;98158.27;1722879;82;25246;-64
2021/01/25 03:23:20;;;;;;;6.47;5.27;;;;;;;0.98;88.07;98160.70;1713415;82;25383;-65
2021/01/25 03:25:47;;;;;;;7.13;5.93;;;;;;;0.99;88.00;98166.22;1718677;82;25271;-65
2021/01/25 03:28:14;;;;;;;6.33;5.37;;;;;;;0.92;87.89;98163.18;1735058;82;25293;-65
2021/01/25 03:30:41;;;;;;;6.73;5.23;;;;;;;0.97;87.83;98161.13;1742526;82;25317;-65
2021/01/25 03:33:08;;;;;;;6.37;4.80;;;;;;;0.98;87.45;98169.28;1742390;82;25290;-64
2021/01/25 03:35:34;;;;;;;6.07;5.20;;;;;;;0.99;87.26;98170.11;1742414;82;25258;-64
2021/01/25 03:38:01;;;;;;;5.93;4.90;;;;;;;0.94;87.21;98173.00;1742354;82;25195;-64
2021/01/25 03:40:28;;;;;;;5.20;4.40;;;;;;;0.95;87.25;98167.35;1741823;82;25099;-65
2021/01/25 03:42:55;;;;;;;4.70;3.90;;;;;;;0.95;86.92;98168.64;1741888;82;25600;-65
2021/01/25 03:45:23;;;;;;;5.87;4.40;;;;;;;0.98;86.46;98174.45;1731144;82;25636;-65
2021/01/25 03:47:49;;;;;;;5.30;4.27;;;;;;;0.91;86.74;98171.89;1716306;82;25360;-66
2021/01/25 03:50:16;;;;;;;5.67;4.73;;;;;;;0.83;87.16;98181.88;1716619;82;25256;-64
2021/01/25 03:52:43;;;;;;;8.10;6.00;;;;;;;0.82;87.02;98178.91;1716329;82;25764;-63
2021/01/25 03:55:12;;;;;;;6.73;5.57;;;;;;;0.84;87.19;98187.41;1735927;82;25831;-64
2021/01/25 03:57:39;;;;;;;10.43;8.10;;;;;;;0.80;87.35;98188.53;1741938;82;25349;-64
2021/01/25 04:00:08;;;;;;;13.33;9.67;;;;;;;0.81;87.56;98184.55;1733310;82;25309;-64
2021/01/25 04:02:34;;;;;;;13.87;9.90;;;;;;;0.83;87.73;98185.76;1714092;82;25217;-64
2021/01/25 04:05:01;;;;;;;10.47;8.07;;;;;;;0.78;87.68;98188.62;1725634;82;25297;-65
2021/01/25 04:07:28;;;;;;;10.70;8.50;;;;;;;0.79;87.87;98180.38;1715519;82;25134;-65
2021/01/25 04:09:54;;;;;;;7.93;6.17;;;;;;;0.78;87.81;98179.56;1720946;82;25266;-65
2021/01/25 04:12:22;;;;;;;7.03;6.27;;;;;;;0.82;87.92;98178.47;1736652;82;25234;-65
2021/01/25 04:14:49;;;;;;;6.90;5.93;;;;;;;0.81;87.79;98183.27;1732285;82;25325;-65
2021/01/25 04:17:16;;;;;;;7.13;5.93;;;;;;;0.84;87.80;98186.97;1718558;82;25169;-66
2021/01/25 04:19:42;;;;;;;6.33;4.83;;;;;;;0.92;87.80;98187.33;1715653;82;25333;-65
2021/01/25 04:22:09;;;;;;;7.77;5.17;;;;;;;0.93;87.62;98184.27;1725788;82;25299;-65
2021/01/25 04:24:36;;;;;;;6.17;5.03;;;;;;;0.98;87.38;98182.70;1719767;82;25744;-65
2021/01/25 04:27:04;;;;;;;5.70;4.77;;;;;;;0.92;87.31;98186.48;1721568;82;25319;-65
2021/01/25 04:29:31;;;;;;;7.03;5.03;;;;;;;0.95;87.03;98186.30;1712141;83;25296;-64
2021/01/25 04:31:58;;;;;;;6.50;4.70;;;;;;;0.94;86.89;98180.77;1712072;83;25313;-64
2021/01/25 04:34:25;;;;;;;6.57;4.70;;;;;;;0.93;86.90;98186.38;1712244;83;25754;-64
2021/01/25 04:36:52;;;;;;;6.27;4.90;;;;;;;0.94;86.84;98187.23;1722765;82;25350;-65
2021/01/25 04:39:18;;;;;;;6.73;5.40;;;;;;;0.93;86.88;98194.16;1719004;82;25260;-66
2021/01/25 04:41:46;;;;;;;8.57;6.63;;;;;;;0.94;86.80;98196.30;1713887;82;25155;-64
2021/01/25 04:44:15;;;;;;;15.33;9.43;;;;;;;0.95;86.86;98191.47;1741721;82;25384;-65
2021/01/25 04:46:43;;;;;;;14.30;9.37;;;;;;;0.98;86.70;98194.35;1741776;82;25325;-65
2021/01/25 04:49:14;;;;;;;23.10;13.53;;;;;;;0.97;86.73;98192.20;1741830;82;25301;-64
2021/01/25 04:51:42;;;;;;;23.07;12.50;;;;;;;0.97;86.71;98192.20;1741600;82;25296;-65
2021/01/25 04:54:09;;;;;;;19.77;10.90;;;;;;;1.02;86.69;98200.55;1741797;82;25286;-66
2021/01/25 04:56:35;;;;;;;17.27;9.60;;;;;;;1.05;86.66;98189.98;1741711;82;25644;-65
2021/01/25 04:59:03;;;;;;;16.70;10.40;;;;;;;1.11;86.54;98196.55;1741715;82;25249;-65
2021/01/25 05:01:30;;;;;;;15.53;9.83;;;;;;;1.11;86.26;98193.49;1731930;82;25285;-64
2021/01/25 05:03:57;;;;;;;15.60;10.20;;;;;;;1.13;86.15;98193.88;1712102;83;25269;-64
2021/01/25 05:06:23;;;;;;;14.20;9.10;;;;;;;1.15;85.87;98199.31;1712306;83;25228;-64
2021/01/25 05:08:50;;;;;;;12.93;8.70;;;;;;;1.14;85.48;98195.08;1721902;82;25250;-64
2021/01/25 05:11:18;;;;;;;13.90;8.13;;;;;;;1.15;85.20;98194.60;1719550;82;25266;-64
2021/01/25 05:13:45;;;;;;;11.07;7.13;;;;;;;1.13;85.43;98196.47;1712175;83;25350;-64
2021/01/25 05:16:20;;;;;;;11.70;7.03;;;;;;;1.13;85.31;98194.69;1712094;83;25312;-65
2021/01/25 05:18:49;;;;;;;10.77;7.27;;;;;;;1.11;85.35;98201.73;1712340;83;25418;-63
2021/01/25 05:21:16;;;;;;;11.57;7.00;;;;;;;1.09;85.48;98202.30;1712098;83;25353;-64
2021/01/25 05:23:43;;;;;;;13.20;7.90;;;;;;;1.06;85.41;98199.89;1712147;83;25403;-63
2021/01/25 05:26:11;;;;;;;14.17;8.70;;;;;;;1.04;85.49;98201.28;1712104;83;25359;-63
2021/01/25 05:28:42;;;;;;;10.37;7.40;;;;;;;1.04;85.49;98193.95;1711376;83;25101;-63
2021/01/25 05:31:23;;;;;;;10.60;7.40;;;;;;;1.04;85.46;98199.98;1723012;82;25323;-64
2021/01/25 05:33:50;;;;;;;13.07;8.83;;;;;;;1.02;85.31;98199.25;1712279;83;25299;-63
2021/01/25 05:36:24;;;;;;;11.50;7.67;;;;;;;0.99;85.23;98208.50;1712150;83;25300;-64
2021/01/25 05:38:52;;;;;;;10.23;6.80;;;;;;;0.99;84.79;98200.73;1721545;82;25155;-65
2021/01/25 05:41:19;;;;;;;8.80;6.60;;;;;;;0.97;84.74;98208.20;1719597;82;25209;-64
2021/01/25 05:43:48;;;;;;;7.80;5.50;;;;;;;0.97;84.98;98209.50;1716575;82;25332;-64
2021/01/25 05:46:17;;;;;;;8.20;5.67;;;;;;;0.94;85.04;98202.77;1733244;82;25286;-64
2021/01/25 05:48:56;;;;;;;6.30;4.93;;;;;;;0.95;85.06;98209.59;1741675;82;25309;-65
2021/01/25 05:51:23;;;;;;;7.70;5.70;;;;;;;0.93;85.14;98216.16;1741740;82;25715;-65
2021/01/25 05:53:50;;;;;;;8.00;5.77;;;;;;;0.96;85.11;98219.51;1741741;82;25357;-65
2021/01/25 05:56:19;;;;;;;8.00;6.07;;;;;;;0.92;85.07;98222.72;1741924;82;25771;-65
2021/01/25 05:58:46;;;;;;;8.33;5.70;;;;;;;0.91;85.19;98220.60;1733564;82;25350;-65
2021/01/25 06:01:13;;;;;;;6.73;5.40;;;;;;;0.92;85.26;98224.02;1732778;82;25230;-65
2021/01/25 06:03:40;;;;;;;6.80;5.43;;;;;;;0.99;85.38;98227.06;1741688;82;25325;-65
2021/01/25 06:06:13;;;;;;;7.23;5.83;;;;;;;0.95;85.23;98232.89;1741684;82;25262;-65
2021/01/25 06:08:52;;;;;;;6.90;5.70;;;;;;;0.95;85.38;98230.78;1734499;82;25154;-65
2021/01/25 06:11:32;;;;;;;7.97;6.30;;;;;;;0.96;85.42;98229.86;1733610;82;25231;-65
2021/01/25 06:14:22;;;;;;;7.33;6.03;;;;;;;0.95;85.38;98230.30;1741646;82;25285;-64
2021/01/25 06:16:50;;;;;;;9.63;7.00;;;;;;;0.97;85.22;98234.92;1741825;82;25305;-64
2021/01/25 06:19:21;;;;;;;10.63;7.33;;;;;;;0.92;85.23;98230.05;1722746;82;25308;-64
2021/01/25 06:21:48;;;;;;;9.73;6.50;;;;;;;0.96;85.04;98237.16;1739388;82;25747;-65
2021/01/25 06:24:15;;;;;;;9.90;7.13;;;;;;;0.98;85.05;98239.19;1741843;82;25329;-65
2021/01/25 06:26:45;;;;;;;10.23;7.70;;;;;;;0.95;85.22;98238.08;1741770;82;25297;-65
2021/01/25 06:29:12;;;;;;;8.77;7.10;;;;;;;0.95;85.24;98241.95;1736220;82;25275;-64
2021/01/25 06:31:40;;;;;;;10.17;7.63;;;;;;;0.93;85.43;98250.28;1680859;82;25210;-64
2021/01/25 06:34:10;;;;;;;11.73;7.87;;;;;;;0.95;85.62;98249.72;1741834;82;25262;-64
2021/01/25 06:36:40;;;;;;;10.10;8.00;;;;;;;0.95;85.64;98257.96;1732484;82;25242;-65
2021/01/25 06:39:27;;;;;;;11.43;8.20;;;;;;;1.01;85.77;98264.89;1818495;78;26413;-66
2021/01/25 06:42:01;;;;;;;11.40;8.70;;;;;;;0.97;85.75;98262.11;1789822;80;25201;-64
2021/01/25 06:44:36;;;;;;;10.03;7.67;;;;;;;1.02;85.61;98272.19;1818575;78;26938;-64
2021/01/25 06:47:04;;;;;;;11.00;8.37;;;;;;;0.95;85.60;98273.50;1739214;80;25261;-64
2021/01/25 06:49:31;;;;;;;11.17;8.07;;;;;;;0.97;85.73;98271.16;1789538;79;25276;-66
2021/01/25 06:51:58;;;;;;;12.87;9.50;;;;;;;1.01;85.82;98279.14;1766568;81;25779;-64
2021/01/25 06:54:26;;;;;;;16.77;10.73;;;;;;;1.04;85.87;98274.22;1750199;81;25218;-64
2021/01/25 06:56:56;;;;;;;15.87;10.90;;;;;;;1.05;85.96;98274.12;1767723;79;25679;-65
2021/01/25 06:59:24;;;;;;;19.47;11.20;;;;;;;1.13;86.06;98281.92;1767777;79;25127;-65
2021/01/25 07:01:53;;;;;;;17.50;10.27;;;;;;;1.16;86.07;98277.38;1767613;80;25183;-65
2021/01/25 07:04:29;;;;;;;23.73;14.23;;;;;;;1.24;86.10;98273.02;1818504;78;26971;-64
2021/01/25 07:06:56;;;;;;;20.83;13.43;;;;;;;1.20;86.06;98277.55;1789450;80;25305;-63
2021/01/25 07:09:31;;;;;;;18.30;10.63;;;;;;;1.22;85.99;98280.88;1789398;80;25300;-64
2021/01/25 07:12:04;;;;;;;15.37;10.20;;;;;;;1.22;85.76;98277.46;1789621;79;25205;-64
2021/01/25 07:14:38;;;;;;;13.13;9.10;;;;;;;1.29;85.92;98276.16;1951371;72;26768;-64
2021/01/25 07:17:05;;;;;;;14.37;9.80;;;;;;;1.23;85.95;98283.84;1893949;74;25572;-65
2021/01/25 07:19:32;;;;;;;16.57;10.03;;;;;;;1.24;86.08;98285.52;1887072;74;25296;-64
2021/01/25 07:21:58;;;;;;;16.73;10.70;;;;;;;1.27;86.26;98289.67;1890501;74;25174;-65
2021/01/25 07:24:26;;;;;;;20.77;12.57;;;;;;;1.24;86.17;98292.44;1887301;75;25166;-65
2021/01/25 07:26:55;;;;;;;21.03;12.80;;;;;;;1.25;86.42;98289.76;1890570;74;25692;-64
2021/01/25 07:29:23;;;;;;;18.00;11.77;;;;;;;1.25;86.44;98290.23;1890187;75;25218;-66
2021/01/25 07:31:50;;;;;;;15.50;10.83;;;;;;;1.24;86.47;98293.73;1890534;75;25292;-64
2021/01/25 07:34:17;;;;;;;15.10;10.43;;;;;;;1.25;86.65;98290.23;1890525;75;25888;-63
2021/01/25 07:36:43;;;;;;;15.10;10.20;;;;;;;1.24;86.68;98289.41;1890556;75;25281;-64
2021/01/25 07:39:13;;;;;;;19.07;11.47;;;;;;;1.32;86.83;98294.11;1890064;74;25778;-65
2021/01/25 07:41:39;;;;;;;15.47;9.90;;;;;;;1.32;86.83;98296.69;1890588;74;25154;-64
2021/01/25 07:44:07;;;;;;;15.70;11.40;;;;;;;1.33;86.72;98303.55;1890096;74;25229;-64
2021/01/25 07:46:34;;;;;;;16.77;10.97;;;;;;;1.32;86.96;98300.58;1883027;75;25095;-64
2021/01/25 07:49:01;;;;;;;16.00;10.97;;;;;;;1.30;87.01;98300.67;1890056;75;25154;-64
2021/01/25 07:51:29;;;;;;;17.07;12.33;;;;;;;1.28;87.00;98296.52;1890593;75;25015;-64
2021/01/25 07:53:58;;;;;;;18.40;12.43;;;;;;;1.34;87.21;98296.60;1890641;75;25163;-64
2021/01/25 07:56:25;;;;;;;16.40;12.90;;;;;;;1.34;87.35;98297.45;1890065;74;25205;-65
2021/01/25 07:59:14;;;;;;;15.20;11.37;;;;;;;1.35;87.43;98302.16;1890002;74;25241;-64
2021/01/25 08:02:01;;;;;;;15.00;10.90;;;;;;;1.31;87.46;98302.82;1883548;74;25253;-64
2021/01/25 08:04:32;;;;;;;12.97;9.63;;;;;;;1.32;87.77;98295.40;1890017;74;25686;-65
2021/01/25 08:06:59;;;;;;;14.47;9.97;;;;;;;1.32;87.99;98300.58;1890651;74;25174;-66
2021/01/25 08:09:27;;;;;;;12.23;9.27;;;;;;;1.25;88.03;98293.64;1890679;74;25564;-65
2021/01/25 08:11:54;;;;;;;14.43;10.33;;;;;;;1.18;88.22;98294.95;1889934;74;25261;-64
2021/01/25 08:14:26;;;;;;;11.80;9.03;;;;;;;1.19;88.38;98286.70;1890947;75;25281;-65
2021/01/25 08:17:00;;;;;;;13.57;9.93;;;;;;;1.22;88.61;98296.89;1890856;74;25245;-65
2021/01/25 08:19:43;;;;;;;12.20;9.50;;;;;;;1.23;88.78;98295.98;1890953;75;25289;-64
2021/01/25 08:22:24;;;;;;;14.87;10.97;;;;;;;1.27;88.66;98297.44;1818516;78;26373;-66
2021/01/25 08:24:58;;;;;;;14.37;10.67;;;;;;;1.19;88.79;98300.52;1789687;79;25297;-65
2021/01/25 08:27:25;;;;;;;11.90;8.43;;;;;;;1.23;89.01;98301.98;1789504;79;25270;-64
2021/01/25 08:30:02;;;;;;;11.00;8.37;;;;;;;1.26;89.06;98303.56;1757798;80;25202;-65
2021/01/25 08:32:33;;;;;;;10.10;8.20;;;;;;;1.29;89.02;98304.65;1761395;81;25720;-65
2021/01/25 08:35:06;;;;;;;12.47;9.10;;;;;;;1.20;89.08;98305.22;1786409;80;25213;-65
2021/01/25 08:37:34;;;;;;;12.07;9.60;;;;;;;1.23;89.03;98317.99;1757903;80;25236;-65
2021/01/25 08:40:13;;;;;;;10.20;9.00;;;;;;;1.30;88.99;98316.69;1750350;81;25323;-65
2021/01/25 08:42:40;;;;;;;11.00;9.07;;;;;;;1.36;88.91;98325.39;1757804;81;25371;-65
2021/01/25 08:45:14;;;;;;;12.77;9.57;;;;;;;1.31;88.74;98319.66;1776415;79;25269;-65
2021/01/25 08:47:41;;;;;;;12.27;9.43;;;;;;;1.39;88.73;98326.95;1757922;81;25362;-66
2021/01/25 08:50:21;;;;;;;10.70;8.43;;;;;;;1.40;88.33;98324.27;1773467;80;25617;-65
2021/01/25 08:52:59;;;;;;;11.40;8.77;;;;;;;1.34;88.23;98331.14;1727607;81;25640;-65
2021/01/25 08:55:30;;;;;;;13.33;9.80;;;;;;;1.24;88.31;98324.37;1735707;81;25291;-65
2021/01/25 08:57:57;;;;;;;14.00;9.63;;;;;;;1.33;88.43;98336.41;1771760;79;25231;-65
2021/01/25 09:00:34;;;;;;;11.10;8.23;;;;;;;1.29;88.34;98324.93;1729023;81;25736;-64
2021/01/25 09:03:04;;;;;;;10.13;7.77;;;;;;;1.26;88.36;98335.94;1727702;82;25649;-65
2021/01/25 09:05:42;;;;;;;8.53;6.67;;;;;;;1.27;88.39;98342.77;1844907;76;26915;-64
2021/01/25 09:08:09;;;;;;;9.53;6.97;;;;;;;1.26;88.08;98348.42;1819879;78;25617;-65
2021/01/25 09:10:35;;;;;;;9.00;7.37;;;;;;;1.24;88.05;98341.21;1805473;77;25257;-65
2021/01/25 09:13:03;;;;;;;9.43;7.50;;;;;;;1.32;88.11;98350.27;1815335;77;25290;-65
2021/01/25 09:15:31;;;;;;;8.23;6.77;;;;;;;1.39;87.62;98361.92;1777492;78;25690;-65
2021/01/25 09:17:58;;;;;;;7.53;6.27;;;;;;;1.43;87.27;98350.47;1793545;78;25265;-64
2021/01/25 09:20:25;;;;;;;8.73;6.03;;;;;;;1.47;86.59;98376.10;1787693;79;25712;-65
2021/01/25 09:22:52;;;;;;;8.57;6.60;;;;;;;1.43;86.45;98374.61;1787768;79;25293;-65
2021/01/25 09:25:20;;;;;;;7.87;6.30;;;;;;;1.48;86.50;98372.56;1797365;78;25246;-64
2021/01/25 09:27:47;;;;;;;6.60;5.30;;;;;;;1.57;86.22;98372.94;1811095;78;25486;-64
2021/01/25 09:30:20;;;;;;;9.27;6.60;;;;;;;1.55;86.37;98375.63;1788068;78;25247;-64
2021/01/25 09:35:26;;;;;;;9.03;7.20;;;;;;;1.67;86.34;98380.52;1814531;77;27479;-65
2021/01/25 09:37:53;;;;;;;10.00;7.23;;;;;;;1.69;85.62;98384.32;1802888;77;25745;-64
2021/01/25 09:40:27;;;;;;;9.63;7.67;;;;;;;1.67;85.22;98385.23;1798054;77;25284;-63
2021/01/25 09:42:54;;;;;;;9.73;7.20;;;;;;;1.67;85.16;98390.89;1782490;78;25250;-64
2021/01/25 09:45:21;;;;;;;10.60;7.30;;;;;;;1.65;85.03;98394.05;1817705;77;25662;-63
2021/01/25 09:47:48;;;;;;;10.50;7.50;;;;;;;1.64;85.36;98397.11;1803908;77;25252;-64
2021/01/25 09:50:16;;;;;;;8.93;7.43;;;;;;;1.66;85.23;98382.29;1788554;80;25244;-63
2021/01/25 09:52:45;;;;;;;11.40;8.23;;;;;;;1.65;85.20;98391.45;1788518;79;25262;-64
2021/01/25 09:55:13;;;;;;;10.20;7.10;;;;;;;1.69;85.46;98392.92;1799314;77;25217;-64
2021/01/25 09:57:40;;;;;;;9.60;7.03;;;;;;;1.74;85.13;98391.34;1820714;77;25195;-64
2021/01/25 10:00:09;;;;;;;8.03;5.93;;;;;;;1.72;85.05;98399.22;1820907;78;25178;-64
2021/01/25 10:02:36;;;;;;;8.33;5.97;;;;;;;1.71;84.64;98394.98;1803051;78;25043;-64
2021/01/25 10:05:05;;;;;;;6.57;5.43;;;;;;;1.84;83.22;98393.30;1813549;77;25348;-64
2021/01/25 10:07:34;;;;;;;8.43;6.23;;;;;;;1.71;83.27;98400.16;1806149;77;25603;-64
2021/01/25 10:10:08;;;;;;;9.80;6.60;;;;;;;1.75;82.53;98396.91;1793411;78;25284;-64
2021/01/25 10:12:35;;;;;;;7.67;5.43;;;;;;;1.69;82.85;98398.10;1807779;77;25190;-64
2021/01/25 10:15:02;;;;;;;10.43;7.07;;;;;;;1.70;82.74;98398.48;1818961;77;25198;-64
2021/01/25 10:17:29;;;;;;;16.93;11.47;;;;;;;1.80;81.81;98405.24;1788284;80;25256;-63
2021/01/25 10:19:56;;;;;;;13.63;9.73;;;;;;;1.66;81.70;98398.31;1788385;79;25765;-64
2021/01/25 10:22:23;;;;;;;8.40;6.10;;;;;;;1.63;82.17;98402.38;1758133;80;25308;-64
2021/01/25 10:24:50;;;;;;;8.43;6.17;;;;;;;1.70;82.06;98394.59;1788122;79;25296;-64
2021/01/25 10:27:17;;;;;;;6.50;5.53;;;;;;;1.67;82.40;98403.84;1788486;79;25142;-65
2021/01/25 10:29:44;;;;;;;8.73;6.60;;;;;;;1.72;82.50;98403.58;1788344;80;25228;-64
2021/01/25 10:32:14;;;;;;;9.57;7.50;;;;;;;1.77;82.45;98402.36;1788289;80;25074;-65
2021/01/25 10:34:42;;;;;;;10.50;8.17;;;;;;;1.77;82.57;98406.25;1788159;79;25229;-64
2021/01/25 10:37:09;;;;;;;11.17;7.40;;;;;;;1.78;82.16;98410.52;1788456;79;25337;-65
2021/01/25 10:39:36;;;;;;;9.30;7.60;;;;;;;1.79;82.13;98406.16;1788559;79;25261;-65
2021/01/25 10:42:03;;;;;;;11.53;9.20;;;;;;;1.80;81.99;98403.47;1788480;80;25690;-65
2021/01/25 10:44:30;;;;;;;10.50;8.00;;;;;;;1.79;82.07;98405.72;1788467;79;25752;-65
2021/01/25 10:46:58;;;;;;;9.57;6.83;;;;;;;1.69;81.98;98407.65;1787859;79;25292;-65
2021/01/25 10:49:25;;;;;;;7.70;6.00;;;;;;;1.70;82.16;98407.55;1787667;79;25339;-65
2021/01/25 10:51:52;;;;;;;6.53;5.27;;;;;;;1.70;81.66;98415.80;1787736;80;25604;-65
2021/01/25 10:54:22;;;;;;;6.47;4.93;;;;;;;1.58;81.71;98416.91;1787933;79;25677;-65
2021/01/25 10:56:48;;;;;;;7.47;5.33;;;;;;;1.54;81.12;98413.29;1787480;79;25718;-63
2021/01/25 10:59:16;;;;;;;7.73;5.67;;;;;;;1.47;81.22;98416.71;1787945;79;25678;-65
2021/01/25 11:01:44;;;;;;;9.67;5.87;;;;;;;1.42;81.30;98416.16;1787916;79;25225;-64
2021/01/25 11:04:11;;;;;;;5.60;5.00;;;;;;;1.43;81.29;98419.12;1787603;79;25678;-65
2021/01/25 11:06:38;;;;;;;7.03;5.77;;;;;;;1.43;81.22;98427.72;1787836;80;25203;-65
2021/01/25 11:09:05;;;;;;;5.70;4.77;;;;;;;1.38;81.49;98421.16;1787965;79;25603;-65
2021/01/25 11:11:32;;;;;;;6.90;5.20;;;;;;;1.30;81.58;98430.20;1787817;79;25180;-65
2021/01/25 11:14:00;;;;;;;6.03;5.20;;;;;;;1.38;81.36;98436.70;1787587;80;25345;-64
2021/01/25 11:16:27;;;;;;;6.70;5.37;;;;;;;1.30;81.26;98433.25;1787744;80;25312;-64
2021/01/25 11:18:56;;;;;;;6.90;5.40;;;;;;;1.21;81.64;98424.75;1787542;79;25197;-64
2021/01/25 11:21:24;;;;;;;7.97;6.00;;;;;;;1.24;81.33;98433.17;1787753;79;25235;-64
2021/01/25 11:23:51;;;;;;;7.20;6.23;;;;;;;1.18;81.57;98432.69;1754817;80;25173;-65
2021/01/25 11:26:19;;;;;;;8.87;6.90;;;;;;;1.14;81.82;98435.06;1787764;80;25706;-65
2021/01/25 11:28:46;;;;;;;6.40;5.20;;;;;;;1.13;81.81;98430.36;1757243;79;25600;-65
2021/01/25 11:31:13;;;;;;;6.57;5.33;;;;;;;1.17;81.69;98433.13;1787859;79;25207;-64
2021/01/25 11:33:40;;;;;;;6.87;5.50;;;;;;;1.18;81.70;98436.10;1787603;80;25256;-65
2021/01/25 11:36:07;;;;;;;7.13;5.90;;;;;;;1.20;81.93;98437.31;1793746;78;25402;-65
2021/01/25 11:38:35;;;;;;;10.00;7.57;;;;;;;1.17;82.10;98439.61;1793183;78;25796;-65
2021/01/25 11:41:03;;;;;;;10.80;7.80;;;;;;;1.24;82.23;98433.17;1793525;78;25238;-65
2021/01/25 11:43:30;;;;;;;11.13;7.83;;;;;;;1.16;82.74;98446.16;1793619;78;26234;-65
2021/01/25 11:45:57;;;;;;;12.23;7.53;;;;;;;1.28;82.39;98441.59;1793583;79;25307;-65